createdAt,value
2023-11-22T00:01:52.945Z,85.92
2023-11-22T00:04:19.502Z,85.88
2023-11-22T00:06:46.016Z,85.77
2023-11-22T00:09:12.742Z,86.00
2023-11-22T00:11:39.213Z,86.03
2023-11-22T00:14:06.019Z,85.62
2023-11-22T00:16:33.058Z,85.92
2023-11-22T00:18:59.558Z,85.92
2023-11-22T00:21:26.400Z,86.21
2023-11-22T00:23:52.844Z,85.93
2023-11-22T00:26:19.481Z,86.02
2023-11-22T00:28:46.049Z,86.12
2023-11-22T00:31:15.875Z,86.05
2023-11-22T00:33:42.652Z,85.29
2023-11-22T00:36:09.271Z,85.26
2023-11-22T00:38:37.218Z,85.69
2023-11-22T00:41:03.890Z,85.61
2023-11-22T00:43:30.459Z,85.58
2023-11-22T00:45:58.215Z,85.75
2023-11-22T00:48:24.722Z,85.45
2023-11-22T00:50:51.950Z,85.12
2023-11-22T00:53:19.553Z,85.25
2023-11-22T00:55:46.113Z,85.14
2023-11-22T00:58:13.022Z,85.26
2023-11-22T01:00:39.462Z,85.27
2023-11-22T01:03:06.524Z,85.24
2023-11-22T01:05:33.219Z,85.02
2023-11-22T01:07:59.817Z,85.45
2023-11-22T01:10:26.306Z,84.94
2023-11-22T01:12:52.810Z,84.70
2023-11-22T01:15:19.381Z,85.15
2023-11-22T01:17:46.567Z,85.19
2023-11-22T01:20:13.982Z,85.34
2023-11-22T01:22:40.652Z,85.38
2023-11-22T01:25:07.422Z,85.48
2023-11-22T01:27:33.914Z,85.48
2023-11-22T01:30:00.384Z,85.42
2023-11-22T01:32:26.838Z,85.26
2023-11-22T01:34:53.269Z,85.10
2023-11-22T01:37:19.691Z,85.16
2023-11-22T01:39:46.201Z,85.26
2023-11-22T01:42:12.695Z,85.50
2023-11-22T01:44:39.152Z,85.58
2023-11-22T01:47:06.075Z,85.62
2023-11-22T01:49:32.864Z,85.82
2023-11-22T01:51:59.467Z,85.87
2023-11-22T01:54:26.158Z,86.10
2023-11-22T01:56:52.715Z,86.09
2023-11-22T01:59:19.347Z,85.82
2023-11-22T02:01:46.207Z,85.56
2023-11-22T02:04:15.870Z,85.93
2023-11-22T02:06:42.741Z,85.67
2023-11-22T02:09:14.464Z,85.84
2023-11-22T02:11:43.144Z,85.90
2023-11-22T02:14:10.245Z,85.68
2023-11-22T02:16:38.082Z,85.81
2023-11-22T02:19:06.223Z,85.85
2023-11-22T02:21:32.644Z,85.36
2023-11-22T02:23:59.120Z,85.77
2023-11-22T02:26:26.010Z,85.52
2023-11-22T02:28:52.524Z,85.35
2023-11-22T02:31:19.146Z,85.10
2023-11-22T02:33:45.568Z,85.38
2023-11-22T02:36:13.862Z,85.66
2023-11-22T02:38:41.568Z,85.70
2023-11-22T02:41:08.101Z,86.22
2023-11-22T02:43:34.591Z,85.46
2023-11-22T02:46:01.101Z,85.50
2023-11-22T02:48:27.602Z,86.41
2023-11-22T02:50:55.349Z,86.36
2023-11-22T02:53:22.602Z,86.59
2023-11-22T02:55:49.937Z,86.73
2023-11-22T02:58:17.415Z,86.81
2023-11-22T03:00:44.677Z,86.08
2023-11-22T03:03:12.736Z,86.52
2023-11-22T03:05:39.317Z,86.69
2023-11-22T03:08:08.296Z,86.65
2023-11-22T03:10:34.971Z,86.40
2023-11-22T03:13:01.432Z,86.48
2023-11-22T03:15:28.015Z,86.39
2023-11-22T03:17:55.515Z,86.65
2023-11-22T03:20:22.449Z,86.40
2023-11-22T03:22:51.598Z,86.49
2023-11-22T03:25:18.962Z,86.63
2023-11-22T03:27:45.480Z,86.73
2023-11-22T03:30:13.145Z,86.60
2023-11-22T03:32:40.776Z,86.52
2023-11-22T03:35:08.717Z,86.66
2023-11-22T03:37:35.681Z,86.56
2023-11-22T03:40:02.334Z,86.32
2023-11-22T03:42:29.023Z,86.91
2023-11-22T03:44:55.743Z,86.66
2023-11-22T03:47:22.494Z,86.89
2023-11-22T03:49:48.974Z,87.24
2023-11-22T03:52:15.491Z,87.49
2023-11-22T03:54:41.963Z,87.60
2023-11-22T03:57:08.494Z,87.54
2023-11-22T03:59:35.869Z,87.43
2023-11-22T04:02:02.386Z,87.54
2023-11-22T04:04:28.899Z,87.85
2023-11-22T04:06:55.458Z,87.79
2023-11-22T04:09:21.951Z,88.27
2023-11-22T04:11:48.566Z,87.71
2023-11-22T04:14:15.274Z,88.13
2023-11-22T04:16:42.131Z,88.32
2023-11-22T04:19:08.945Z,88.01
2023-11-22T04:21:35.761Z,88.21
2023-11-22T04:24:02.330Z,88.29
2023-11-22T04:26:28.810Z,88.31
2023-11-22T04:28:55.544Z,88.10
2023-11-22T04:31:22.067Z,88.14
2023-11-22T04:33:48.726Z,88.43
2023-11-22T04:36:15.217Z,88.41
2023-11-22T04:38:41.679Z,88.52
2023-11-22T04:41:08.874Z,88.47
2023-11-22T04:43:35.368Z,88.66
2023-11-22T04:46:01.864Z,88.34
2023-11-22T04:48:28.495Z,88.49
2023-11-22T04:50:54.978Z,88.75
2023-11-22T04:53:21.522Z,88.97
2023-11-22T04:55:47.986Z,89.10
2023-11-22T04:58:14.413Z,88.76
2023-11-22T05:00:40.917Z,89.31
2023-11-22T05:03:07.689Z,90.00
2023-11-22T05:05:34.377Z,89.83
2023-11-22T05:08:00.933Z,89.36
2023-11-22T05:10:27.457Z,89.68
2023-11-22T05:12:53.986Z,89.63
2023-11-22T05:15:20.651Z,89.26
2023-11-22T05:17:47.304Z,89.73
2023-11-22T05:20:13.827Z,89.48
2023-11-22T05:22:40.319Z,89.52
2023-11-22T05:25:08.206Z,89.97
2023-11-22T05:27:34.841Z,89.73
2023-11-22T05:30:02.113Z,89.63
2023-11-22T05:32:30.317Z,90.02
2023-11-22T05:34:56.961Z,89.96
2023-11-22T05:37:24.952Z,89.78
2023-11-22T05:39:52.216Z,89.63
2023-11-22T05:42:19.157Z,89.67
2023-11-22T05:44:45.713Z,89.36
2023-11-22T05:47:14.137Z,89.22
2023-11-22T05:49:40.749Z,89.60
2023-11-22T05:52:07.275Z,89.79
2023-11-22T05:54:33.742Z,89.84
2023-11-22T05:57:00.207Z,89.74
2023-11-22T05:59:26.864Z,89.50
2023-11-22T06:01:53.390Z,89.54
2023-11-22T06:04:20.330Z,89.26
2023-11-22T06:06:50.042Z,89.38
2023-11-22T06:09:16.640Z,89.21
2023-11-22T06:11:43.259Z,88.85
2023-11-22T06:14:09.838Z,89.44
2023-11-22T06:16:36.485Z,89.01
2023-11-22T06:19:02.982Z,89.39
2023-11-22T06:21:29.609Z,89.36
2023-11-22T06:23:59.654Z,88.76
2023-11-22T06:26:26.509Z,88.82
2023-11-22T06:28:53.024Z,88.39
2023-11-22T06:31:20.006Z,88.69
2023-11-22T06:33:46.631Z,88.65
2023-11-22T06:36:15.366Z,88.64
2023-11-22T06:38:41.988Z,88.50
2023-11-22T06:41:08.445Z,89.47
2023-11-22T06:43:34.957Z,89.65
2023-11-22T06:46:02.254Z,89.21
2023-11-22T06:48:42.713Z,88.84
2023-11-22T06:51:09.182Z,89.11
2023-11-22T06:53:35.806Z,88.54
2023-11-22T06:56:02.814Z,88.58
2023-11-22T06:58:29.223Z,89.10
2023-11-22T07:00:56.330Z,89.20
2023-11-22T07:03:23.013Z,89.27
2023-11-22T07:05:49.679Z,89.44
2023-11-22T07:08:19.796Z,88.86
2023-11-22T07:10:46.473Z,88.83
2023-11-22T07:13:13.903Z,89.34
2023-11-22T07:15:41.952Z,89.09
2023-11-22T07:18:11.043Z,88.64
2023-11-22T07:20:38.265Z,88.00
2023-11-22T07:23:04.805Z,88.38
2023-11-22T07:25:32.642Z,88.24
2023-11-22T07:28:00.345Z,88.64
2023-11-22T07:30:31.753Z,88.33
2023-11-22T07:33:00.413Z,88.38
2023-11-22T07:35:29.382Z,88.21
2023-11-22T07:37:56.124Z,87.70
2023-11-22T07:40:23.581Z,88.13
2023-11-22T07:42:50.513Z,87.59
2023-11-22T07:45:18.119Z,88.43
2023-11-22T07:47:45.140Z,87.83
2023-11-22T07:50:15.040Z,88.44
2023-11-22T07:52:42.802Z,88.46
2023-11-22T07:55:10.877Z,88.36
2023-11-22T07:57:40.319Z,88.20
2023-11-22T08:00:08.679Z,88.61
2023-11-22T08:02:37.920Z,88.57
2023-11-22T08:05:09.443Z,88.38
2023-11-22T08:07:39.812Z,89.06
2023-11-22T08:10:10.850Z,89.10
2023-11-22T08:12:40.222Z,89.47
2023-11-22T08:15:06.941Z,88.99
2023-11-22T08:17:33.646Z,89.13
2023-11-22T08:20:01.291Z,89.06
2023-11-22T08:22:30.098Z,89.39
2023-11-22T08:24:58.465Z,89.02
2023-11-22T08:27:24.949Z,88.81
2023-11-22T08:29:51.697Z,88.87
2023-11-22T08:32:19.959Z,87.48
2023-11-22T08:34:46.701Z,88.58
2023-11-22T08:37:13.139Z,88.25
2023-11-22T08:39:40.312Z,87.85
2023-11-22T08:42:10.453Z,87.57
2023-11-22T08:44:37.764Z,88.28
2023-11-22T08:47:04.574Z,87.97
2023-11-22T08:49:31.342Z,87.41
2023-11-22T08:51:58.031Z,87.65
2023-11-22T08:54:24.559Z,87.27
2023-11-22T08:56:51.148Z,86.79
2023-11-22T08:59:17.795Z,86.79
2023-11-22T09:01:46.586Z,86.74
2023-11-22T09:04:13.050Z,87.88
2023-11-22T09:06:39.542Z,87.72
2023-11-22T09:09:06.462Z,85.85
2023-11-22T09:11:35.686Z,86.48
2023-11-22T09:14:05.950Z,85.29
2023-11-22T09:16:40.073Z,86.57
2023-11-22T09:19:09.650Z,86.91
2023-11-22T09:21:36.241Z,85.89
2023-11-22T09:24:03.396Z,86.62
2023-11-22T09:26:30.642Z,85.67
2023-11-22T09:28:59.949Z,86.97
2023-11-22T09:31:27.522Z,87.13
2023-11-22T09:33:54.139Z,87.26
2023-11-22T09:36:20.643Z,86.55
2023-11-22T09:38:48.260Z,86.65
2023-11-22T09:41:17.191Z,86.50
2023-11-22T09:43:45.165Z,86.88
2023-11-22T09:46:13.094Z,85.55
2023-11-22T09:48:40.900Z,85.97
2023-11-22T09:51:18.987Z,86.68
2023-11-22T09:53:52.910Z,86.93
2023-11-22T09:56:19.939Z,86.45
2023-11-22T09:58:46.515Z,86.95
2023-11-22T10:01:14.619Z,86.46
2023-11-22T10:03:41.572Z,86.37
2023-11-22T10:06:08.493Z,86.74
2023-11-22T10:08:37.045Z,86.99
2023-11-22T10:11:05.387Z,86.01
2023-11-22T10:13:32.129Z,85.85
2023-11-22T10:16:13.390Z,87.15
2023-11-22T10:18:42.919Z,86.32
2023-11-22T10:21:23.953Z,86.65
2023-11-22T10:23:52.861Z,86.77
2023-11-22T10:26:19.819Z,86.55
2023-11-22T10:28:46.384Z,86.95
2023-11-22T10:31:12.941Z,86.31
2023-11-22T10:33:43.567Z,86.54
2023-11-22T10:36:10.633Z,85.03
2023-11-22T10:38:37.413Z,85.49
2023-11-22T10:41:08.806Z,86.43
2023-11-22T10:43:39.262Z,85.38
2023-11-22T10:46:06.227Z,85.49
2023-11-22T10:48:36.840Z,85.17
2023-11-22T10:51:07.328Z,85.10
2023-11-22T10:53:35.764Z,86.02
2023-11-22T10:56:12.912Z,85.62
2023-11-22T10:58:48.990Z,86.28
2023-11-22T11:01:23.409Z,86.27
2023-11-22T11:04:07.922Z,85.83
2023-11-22T11:06:35.641Z,86.10
2023-11-22T11:09:06.704Z,84.27
2023-11-22T11:11:34.977Z,83.40
2023-11-22T11:14:03.142Z,83.92
2023-11-22T11:16:32.396Z,83.47
2023-11-22T11:18:59.610Z,83.18
2023-11-22T11:21:26.808Z,84.21
2023-11-22T11:23:57.831Z,84.17
2023-11-22T11:26:27.007Z,84.96
2023-11-22T11:28:56.283Z,85.44
2023-11-22T11:31:23.839Z,84.75
2023-11-22T11:33:50.914Z,84.40
2023-11-22T11:36:32.814Z,84.09
2023-11-22T11:39:04.891Z,84.90
2023-11-22T11:41:34.796Z,84.47
2023-11-22T11:44:05.562Z,84.04
2023-11-22T11:46:32.513Z,83.67
2023-11-22T11:48:59.124Z,85.24
2023-11-22T11:51:28.028Z,84.61
2023-11-22T11:53:55.529Z,84.55
2023-11-22T11:56:22.249Z,84.27
2023-11-22T11:58:53.434Z,83.52
2023-11-22T12:01:23.822Z,82.89
2023-11-22T12:03:52.204Z,83.08
2023-11-22T12:06:21.148Z,81.82
2023-11-22T12:08:48.528Z,80.96
2023-11-22T12:11:17.334Z,82.53
2023-11-22T12:13:51.788Z,81.41
2023-11-22T12:16:19.445Z,80.23
2023-11-22T12:18:49.280Z,80.38
2023-11-22T12:21:17.398Z,81.00
2023-11-22T12:23:45.055Z,80.68
2023-11-22T12:26:21.606Z,80.19
2023-11-22T12:29:00.109Z,80.82
2023-11-22T12:31:36.099Z,81.81
2023-11-22T12:34:03.861Z,80.67
2023-11-22T12:36:30.524Z,80.81
2023-11-22T12:38:59.403Z,81.38
2023-11-22T12:41:27.956Z,81.63
2023-11-22T12:44:05.546Z,80.42
2023-11-22T12:46:56.859Z,80.70
2023-11-22T12:49:24.393Z,80.52
2023-11-22T12:51:52.265Z,80.66
2023-11-22T12:54:21.663Z,80.01
2023-11-22T12:56:59.513Z,79.76
2023-11-22T12:59:31.411Z,81.31
2023-11-22T13:01:58.925Z,80.29
2023-11-22T13:04:25.697Z,80.45
2023-11-22T13:06:52.881Z,80.75
2023-11-22T13:09:19.372Z,80.99
2023-11-22T13:11:46.837Z,80.39
2023-11-22T13:14:16.443Z,81.18
2023-11-22T13:16:43.909Z,80.37
2023-11-22T13:19:11.511Z,79.94
2023-11-22T13:21:38.019Z,80.51
2023-11-22T13:24:06.125Z,80.39
2023-11-22T13:26:32.697Z,80.27
2023-11-22T13:29:00.106Z,80.27
2023-11-22T13:31:26.657Z,80.38
2023-11-22T13:33:53.157Z,80.63
2023-11-22T13:36:19.627Z,80.77
2023-11-22T13:38:46.128Z,80.51
2023-11-22T13:41:12.640Z,81.24
2023-11-22T13:43:40.700Z,81.28
2023-11-22T13:46:11.163Z,81.47
2023-11-22T13:48:37.747Z,81.85
2023-11-22T13:51:07.159Z,81.54
2023-11-22T13:53:37.760Z,81.53
2023-11-22T13:56:09.930Z,81.83
2023-11-22T13:58:37.046Z,81.68
2023-11-22T14:01:07.248Z,82.17
2023-11-22T14:03:34.581Z,82.70
2023-11-22T14:06:02.023Z,81.80
2023-11-22T14:08:28.757Z,81.70
2023-11-22T14:10:55.478Z,82.01
2023-11-22T14:13:22.624Z,82.45
2023-11-22T14:15:49.674Z,82.63
2023-11-22T14:18:16.331Z,82.44
2023-11-22T14:20:42.865Z,81.58
2023-11-22T14:23:09.455Z,82.12
2023-11-22T14:25:36.087Z,83.05
2023-11-22T14:28:02.580Z,83.02
2023-11-22T14:30:31.808Z,82.67
2023-11-22T14:33:00.798Z,83.31
2023-11-22T14:35:28.880Z,83.34
2023-11-22T14:37:55.744Z,84.12
2023-11-22T14:40:22.659Z,82.89
2023-11-22T14:42:51.563Z,83.28
2023-11-22T14:45:20.865Z,83.22
2023-11-22T14:47:47.587Z,83.84
2023-11-22T14:50:16.846Z,83.27
2023-11-22T14:52:45.153Z,83.85
2023-11-22T14:55:13.727Z,83.99
2023-11-22T14:57:40.581Z,84.72
2023-11-22T15:00:10.991Z,85.17
2023-11-22T15:02:37.704Z,85.51
2023-11-22T15:05:05.869Z,85.43
2023-11-22T15:07:36.825Z,85.86
2023-11-22T15:10:03.359Z,85.83
2023-11-22T15:12:31.641Z,85.63
2023-11-22T15:14:58.227Z,85.46
2023-11-22T15:17:24.764Z,86.17
2023-11-22T15:19:51.426Z,86.42
2023-11-22T15:22:17.992Z,86.86
2023-11-22T15:24:45.582Z,86.99
2023-11-22T15:27:12.081Z,86.77
2023-11-22T15:29:38.569Z,87.23
2023-11-22T15:32:05.906Z,86.54
2023-11-22T15:34:32.459Z,86.93
2023-11-22T15:36:59.096Z,87.08
2023-11-22T15:39:25.703Z,86.99
2023-11-22T15:41:52.585Z,87.20
2023-11-22T15:44:19.070Z,87.18
2023-11-22T15:46:45.559Z,87.57
2023-11-22T15:49:12.074Z,87.30
2023-11-22T15:51:38.574Z,87.04
2023-11-22T15:54:05.481Z,87.97
2023-11-22T15:56:32.159Z,87.84
2023-11-22T15:59:01.879Z,88.11
2023-11-22T16:01:29.016Z,88.11
2023-11-22T16:03:55.791Z,88.25
2023-11-22T16:06:23.830Z,88.13
2023-11-22T16:08:50.610Z,88.41
2023-11-22T16:11:17.234Z,88.38
2023-11-22T16:13:45.582Z,88.49
2023-11-22T16:16:12.877Z,88.83
2023-11-22T16:18:40.148Z,88.50
2023-11-22T16:21:08.714Z,88.53
2023-11-22T16:23:36.432Z,88.77
2023-11-22T16:26:05.764Z,89.07
2023-11-22T16:28:37.013Z,89.36
2023-11-22T16:31:06.186Z,89.54
2023-11-22T16:33:34.964Z,89.46
2023-11-22T16:36:02.702Z,89.66
2023-11-22T16:38:29.201Z,89.73
2023-11-22T16:40:57.727Z,89.99
2023-11-22T16:43:24.172Z,89.70
2023-11-22T16:45:52.549Z,89.53
2023-11-22T16:48:19.247Z,89.30
2023-11-22T16:50:47.178Z,89.26
2023-11-22T16:53:15.999Z,89.21
2023-11-22T16:55:44.334Z,89.64
2023-11-22T16:58:11.831Z,89.60
2023-11-22T17:00:38.393Z,89.70
2023-11-22T17:03:05.066Z,89.80
2023-11-22T17:05:31.654Z,89.34
2023-11-22T17:07:58.318Z,89.53
2023-11-22T17:10:44.907Z,89.37
2023-11-22T17:13:12.374Z,89.28
2023-11-22T17:15:40.985Z,89.36
2023-11-22T17:18:08.277Z,89.49
2023-11-22T17:20:35.988Z,89.28
2023-11-22T17:23:02.482Z,89.48
2023-11-22T17:25:30.196Z,89.10
2023-11-22T17:27:59.681Z,89.19
2023-11-22T17:30:26.397Z,89.23
2023-11-22T17:32:53.519Z,89.00
2023-11-22T17:35:21.478Z,88.66
2023-11-22T17:37:48.469Z,88.72
2023-11-22T17:40:15.657Z,88.93
2023-11-22T17:42:42.200Z,88.88
2023-11-22T17:45:10.149Z,89.20
2023-11-22T17:47:37.295Z,88.91
2023-11-22T17:50:05.843Z,88.93
2023-11-22T17:52:32.815Z,89.29
2023-11-22T17:54:59.623Z,88.84
2023-11-22T17:57:26.147Z,89.08
2023-11-22T17:59:52.635Z,88.88
2023-11-22T18:02:19.136Z,88.64
2023-11-22T18:04:45.619Z,88.87
2023-11-22T18:07:15.409Z,88.69
2023-11-22T18:09:42.713Z,88.63
2023-11-22T18:12:11.680Z,88.77
2023-11-22T18:14:38.235Z,88.67
2023-11-22T18:17:04.737Z,88.65
2023-11-22T18:19:31.938Z,88.90
2023-11-22T18:21:59.163Z,88.62
2023-11-22T18:24:28.173Z,88.60
2023-11-22T18:26:55.850Z,88.63
2023-11-22T18:29:23.049Z,88.62
2023-11-22T18:31:51.195Z,88.60
2023-11-22T18:34:17.665Z,88.68
2023-11-22T18:36:44.131Z,88.81
2023-11-22T18:39:10.789Z,88.54
2023-11-22T18:41:39.871Z,88.57
2023-11-22T18:44:06.557Z,88.52
2023-11-22T18:46:33.014Z,88.70
2023-11-22T18:48:59.931Z,88.46
2023-11-22T18:51:26.383Z,88.38
2023-11-22T18:53:53.196Z,88.56
2023-11-22T18:56:19.786Z,88.45
2023-11-22T18:58:46.335Z,88.24
2023-11-22T19:01:12.844Z,88.58
2023-11-22T19:03:39.289Z,88.39
2023-11-22T19:06:07.990Z,88.00
2023-11-22T19:08:34.611Z,88.04
2023-11-22T19:11:01.172Z,88.67
2023-11-22T19:13:30.786Z,88.29
2023-11-22T19:15:59.422Z,88.09
2023-11-22T19:18:26.169Z,88.40
2023-11-22T19:20:55.059Z,88.11
2023-11-22T19:23:21.597Z,88.48
2023-11-22T19:25:48.352Z,88.38
2023-11-22T19:28:14.841Z,88.79
2023-11-22T19:30:41.400Z,88.83
2023-11-22T19:33:08.090Z,88.96
2023-11-22T19:35:36.114Z,89.39
2023-11-22T19:38:05.811Z,90.36
2023-11-22T19:40:33.087Z,90.97
2023-11-22T19:42:59.601Z,91.76
2023-11-22T19:45:26.029Z,91.90
2023-11-22T19:47:52.756Z,92.45
2023-11-22T19:50:21.187Z,93.03
2023-11-22T19:52:47.689Z,93.57
2023-11-22T19:55:14.749Z,93.97
2023-11-22T19:57:44.154Z,94.55
2023-11-22T20:00:11.597Z,94.83
2023-11-22T20:02:38.591Z,95.20
2023-11-22T20:05:05.707Z,95.22
2023-11-22T20:07:32.221Z,95.47
2023-11-22T20:10:01.588Z,95.72
2023-11-22T20:12:28.528Z,96.19
2023-11-22T20:14:55.866Z,96.29
2023-11-22T20:17:22.374Z,96.50
2023-11-22T20:19:49.689Z,96.46
2023-11-22T20:22:16.244Z,96.62
2023-11-22T20:24:43.060Z,96.88
2023-11-22T20:27:09.685Z,97.17
2023-11-22T20:29:36.947Z,97.32
2023-11-22T20:32:03.698Z,97.73
2023-11-22T20:34:31.082Z,97.53
2023-11-22T20:36:57.552Z,98.12
2023-11-22T20:39:24.194Z,98.14
2023-11-22T20:41:50.680Z,98.24
2023-11-22T20:44:17.801Z,98.19
2023-11-22T20:46:45.324Z,98.26
2023-11-22T20:49:12.678Z,98.54
2023-11-22T20:51:39.260Z,98.39
2023-11-22T20:54:05.803Z,98.91
2023-11-22T20:56:32.287Z,99.44
2023-11-22T20:58:58.739Z,99.05
2023-11-22T21:01:25.280Z,99.53
2023-11-22T21:03:51.998Z,99.98
2023-11-22T21:06:19.289Z,99.79
2023-11-22T21:08:46.700Z,99.68
2023-11-22T21:11:14.362Z,99.93
2023-11-22T21:13:41.213Z,100.00
2023-11-22T21:16:09.501Z,100.00
2023-11-22T21:18:38.158Z,100.00
2023-11-22T21:21:07.927Z,100.00
2023-11-22T21:23:34.534Z,100.00
2023-11-22T21:26:02.609Z,100.00
2023-11-22T21:28:29.066Z,100.00
2023-11-22T21:30:55.529Z,100.00
2023-11-22T21:33:22.071Z,100.00
2023-11-22T21:35:48.623Z,100.00
2023-11-22T21:38:15.231Z,100.00
2023-11-22T21:40:42.883Z,100.00
2023-11-22T21:43:09.476Z,100.00
2023-11-22T21:45:36.101Z,100.00
2023-11-22T21:48:03.488Z,100.00
2023-11-22T21:50:30.132Z,100.00
2023-11-22T21:52:56.618Z,100.00
2023-11-22T21:55:23.075Z,100.00
2023-11-22T21:57:49.588Z,100.00
2023-11-22T22:00:16.456Z,100.00
2023-11-22T22:02:43.153Z,100.00
2023-11-22T22:05:09.757Z,100.00
2023-11-22T22:07:36.310Z,100.00
2023-11-22T22:10:02.807Z,100.00
2023-11-22T22:12:29.234Z,100.00
2023-11-22T22:14:55.823Z,100.00
2023-11-22T22:17:22.360Z,100.00
2023-11-22T22:19:48.924Z,100.00
2023-11-22T22:22:15.700Z,100.00
2023-11-22T22:24:42.131Z,100.00
2023-11-22T22:27:08.622Z,100.00
2023-11-22T22:29:35.180Z,100.00
2023-11-22T22:32:01.683Z,100.00
2023-11-22T22:34:28.115Z,100.00
2023-11-22T22:36:57.631Z,100.00
2023-11-22T22:39:24.981Z,100.00
2023-11-22T22:41:52.030Z,100.00
2023-11-22T22:44:18.562Z,100.00
2023-11-22T22:46:45.384Z,100.00
2023-11-22T22:49:12.157Z,100.00
2023-11-22T22:51:38.925Z,100.00
2023-11-22T22:54:06.099Z,100.00
2023-11-22T22:56:32.635Z,100.00
2023-11-22T22:58:59.172Z,100.00
2023-11-22T23:01:25.734Z,100.00
2023-11-22T23:03:52.290Z,100.00
2023-11-22T23:06:26.351Z,100.00
2023-11-22T23:08:53.807Z,100.00
2023-11-22T23:11:21.684Z,100.00
2023-11-22T23:13:48.837Z,100.00
2023-11-22T23:16:15.437Z,100.00
2023-11-22T23:18:45.246Z,100.00
2023-11-22T23:21:13.279Z,100.00
2023-11-22T23:23:39.877Z,100.00
2023-11-22T23:26:06.435Z,100.00
2023-11-22T23:28:33.809Z,100.00
2023-11-22T23:31:00.798Z,100.00
2023-11-22T23:33:27.401Z,100.00
2023-11-22T23:35:54.463Z,100.00
2023-11-22T23:38:22.247Z,100.00
2023-11-22T23:40:48.958Z,100.00
2023-11-22T23:43:17.975Z,100.00
2023-11-22T23:45:45.048Z,100.00
2023-11-22T23:48:14.315Z,100.00
2023-11-22T23:50:41.247Z,100.00
2023-11-22T23:53:07.747Z,100.00
2023-11-22T23:55:34.246Z,100.00
2023-11-22T23:58:01.176Z,100.00
